Time;durP1;ratioP1;P1;durP2;ratioP2;P2;SDS_P1;SDS_P2;PMS_P1;PMS_P2;Temp;Humidity;BMP_temperature;BMP_pressure;BME280_temperature;BME280_humidity;BME280_pressure;Samples;Min_cycle;Max_cycle;Signal;HPM_P1;HPM_P2
2023/04/22 00:00:54;;;;;;;;;12.00;10.00;;;;;13.15;46.49;67744.09;5013679;28;46147;-89
2023/04/22 00:03:23;;;;;;;;;9.33;9.33;;;;;13.67;46.37;67835.34;5014330;28;45546;-89
2023/04/22 00:05:48;;;;;;;;;13.00;10.67;;;;;14.19;46.66;67705.97;5014343;28;45440;-89
2023/04/22 00:08:13;;;;;;;;;12.67;9.33;;;;;13.37;46.77;67626.03;5015168;28;45427;-89
2023/04/22 00:10:39;;;;;;;;;13.33;10.00;;;;;13.19;47.23;67615.50;5013745;28;46171;-89
2023/04/22 00:13:04;;;;;;;;;15.00;10.33;;;;;13.32;46.82;67630.75;5016119;28;45778;-89
2023/04/22 00:15:29;;;;;;;;;10.67;9.00;;;;;14.12;46.96;67741.47;5015257;28;45866;-89
2023/04/22 00:17:57;;;;;;;;;13.00;8.67;;;;;14.09;46.89;67703.41;5000320;28;45713;-89
2023/04/22 00:20:32;;;;;;;;;7.67;7.67;;;;;13.54;46.95;67551.81;5012405;28;45548;-88
2023/04/22 00:22:57;;;;;;;;;9.00;9.00;;;;;14.04;47.22;67705.50;5016176;28;45454;-88
2023/04/22 00:25:22;;;;;;;;;7.67;7.67;;;;;13.85;47.21;67641.28;4997596;28;45730;-89
2023/04/22 00:27:48;;;;;;;;;10.67;10.33;;;;;13.07;47.61;67538.91;5015450;28;45472;-89
2023/04/22 00:30:13;;;;;;;;;11.00;10.67;;;;;13.94;47.52;67627.31;5010851;28;45521;-89
2023/04/22 00:32:39;;;;;;;;;12.00;10.67;;;;;13.38;47.54;67539.56;4999928;28;45816;-88
2023/04/22 00:35:05;;;;;;;;;10.00;10.00;;;;;13.75;47.67;67541.88;5015316;28;45316;-89
2023/04/22 00:37:30;;;;;;;;;12.33;11.00;;;;;13.47;47.63;67586.69;5016427;28;45353;-89
2023/04/22 00:39:56;;;;;;;;;15.00;12.00;;;;;13.66;47.68;67526.63;5015610;28;46075;-88
2023/04/22 00:42:22;;;;;;;;;10.33;9.33;;;;;13.36;48.17;67549.91;5015145;28;45407;-90
2023/04/22 00:44:50;;;;;;;;;8.33;8.33;;;;;13.77;48.07;67463.94;5012426;28;45522;-89
2023/04/22 00:47:16;;;;;;;;;9.67;9.67;;;;;13.65;48.00;67514.81;5010462;28;45833;-88
2023/04/22 00:49:42;;;;;;;;;10.67;8.33;;;;;13.45;48.04;67419.72;5016221;28;46037;-89
2023/04/22 00:52:07;;;;;;;;;10.33;10.33;;;;;13.69;48.11;67471.09;5015876;28;45794;-89
2023/04/22 00:54:34;;;;;;;;;8.00;8.00;;;;;13.60;48.14;67437.28;4997303;28;45489;-89
2023/04/22 00:57:01;;;;;;;;;11.67;10.33;;;;;13.36;48.29;67335.44;5016416;28;45987;-89
2023/04/22 00:59:27;;;;;;;;;10.67;10.67;;;;;13.48;48.12;67404.63;5016326;28;45736;-89
2023/04/22 05:02:20;;;;;;;;;17.00;10.67;;;;;13.48;56.17;52959.09;5092948;23;45654;-92
2023/04/22 05:04:46;;;;;;;;;11.67;10.67;;;;;13.50;56.37;51720.19;5005015;28;45580;-91
2023/04/22 05:07:11;;;;;;;;;13.67;12.00;;;;;13.23;56.33;51130.38;5005141;28;46009;-92
2023/04/22 05:09:37;;;;;;;;;10.00;10.00;;;;;13.33;57.15;50215.84;5002999;28;46506;-94
2023/04/22 05:12:03;;;;;;;;;16.00;15.67;;;;;12.04;57.24;48910.44;4988421;28;45941;-95
2023/04/22 05:14:29;;;;;;;;;10.67;10.67;;;;;12.81;57.48;48584.72;4991672;28;47024;-93
2023/04/22 05:16:54;;;;;;;;;13.00;13.00;;;;;12.34;57.57;46580.09;5008716;28;45439;-94
2023/04/22 05:19:20;;;;;;;;;18.33;17.00;;;;;13.26;58.22;43940.47;4984096;28;47235;-95
2023/04/22 05:21:45;;;;;;;;;14.00;11.33;;;;;12.86;58.02;43570.34;4994530;28;47198;-94
2023/04/22 05:24:11;;;;;;;;;11.33;10.67;;;;;12.28;58.87;40387.00;5017224;28;45746;-93
2023/04/22 05:26:36;;;;;;;;;13.67;12.33;;;;;11.95;59.12;36803.31;5000167;28;45660;-94
2023/04/22 05:29:02;;;;;;;;;13.33;11.33;;;;;12.99;59.30;32952.06;5018682;28;45987;-93
2023/04/22 05:31:28;;;;;;;;;12.67;11.67;;;;;12.71;59.85;29230.06;5018124;28;45530;-94
2023/04/22 05:33:53;;;;;;;;;13.67;13.00;;;;;12.81;60.22;25538.19;5020743;28;45455;-95
2023/04/22 05:36:18;;;;;;;;;13.33;13.33;;;;;12.65;59.32;27210.81;5021088;28;45845;-93
2023/04/22 05:38:44;;;;;;;;;12.33;11.67;;;;;12.85;59.39;27892.59;5019143;28;45676;-93
2023/04/22 05:41:12;;;;;;;;;17.33;15.33;;;;;12.95;59.40;27225.06;5020909;28;45504;-95
2023/04/22 05:43:38;;;;;;;;;16.33;13.33;;;;;12.70;59.40;25869.13;5012154;28;45547;-94
2023/04/22 05:46:03;;;;;;;;;12.33;12.00;;;;;12.84;59.24;25203.66;5006086;28;47048;-95
2023/04/22 05:48:30;;;;;;;;;15.67;12.67;;;;;12.37;60.91;16799.13;5010353;28;46622;-94
2023/04/22 05:50:56;;;;;;;;;14.33;12.67;;;;;11.75;61.32;12431.72;4992560;28;46379;-94
2023/04/22 05:53:26;;;;;;;;;12.33;10.33;;;;;12.28;61.64;11775.88;5015051;28;45861;-96
2023/04/22 05:55:52;;;;;;;;;15.67;12.33;;;;;12.68;62.15;8105.66;4995952;28;45619;-95
2023/04/22 05:58:18;;;;;;;;;13.33;11.67;;;;;11.46;61.67;7416.19;5020942;28;45639;-95
2023/04/22 06:01:07;;;;;;;;;12.00;11.00;;;;;11.78;61.93;5419.16;5003950;28;45594;-95
2023/04/22 06:03:40;;;;;;;;;12.67;11.67;;;;;13.12;62.65;3431.69;5000410;28;45585;-96
2023/04/22 06:07:00;;;;;;;;;14.33;13.67;;;;;12.78;62.63;756.84;5025058;28;44889;-95
2023/04/22 06:09:29;;;;;;;;;14.33;14.00;;;;;12.48;62.85;87.75;5011887;28;46983;-96
2023/04/22 06:11:55;;;;;;;;;13.67;11.33;;;;;11.79;63.33;-1914.50;4990348;28;45638;-95
2023/04/22 06:14:20;;;;;;;;;14.00;13.00;;;;;12.25;63.20;-1580.34;5011012;28;45566;-95
2023/04/22 06:16:53;;;;;;;;;16.00;16.00;;;;;13.20;63.72;-3246.69;4999038;28;45531;-96
2023/04/22 06:19:20;;;;;;;;;8.00;7.33;;;;;11.77;63.71;-3912.19;5017014;28;46675;-96
2023/04/22 06:21:45;;;;;;;;;16.00;16.00;;;;;12.85;64.12;-7246.38;5011019;28;45589;-94
2023/04/22 06:24:10;;;;;;;;;14.33;14.33;;;;;12.24;65.00;-8906.06;4997406;28;45428;-93
2023/04/22 06:26:36;;;;;;;;;13.67;11.67;;;;;12.27;64.76;-9239.03;5008236;28;45807;-96
2023/04/22 06:29:04;;;;;;;;;13.00;11.67;;;;;11.45;64.68;-9230.94;5009390;28;46457;-96
2023/04/22 06:31:32;;;;;;;;;13.67;13.00;;;;;12.91;65.53;-11575.59;5012670;28;45502;-94
2023/04/22 06:33:58;;;;;;;;;13.33;12.33;;;;;12.44;65.26;-10238.81;5017184;28;45401;-93
2023/04/22 06:36:24;;;;;;;;;20.33;16.67;;;;;12.24;65.84;-12896.13;5005239;28;45782;-92
2023/04/22 06:38:50;;;;;;;;;13.67;12.33;;;;;12.98;66.08;-14238.22;5003267;28;45538;-95
2023/04/22 06:41:16;;;;;;;;;16.00;13.00;;;;;13.21;67.37;-16903.16;4987869;28;45520;-93
2023/04/22 06:43:42;;;;;;;;;15.33;14.67;;;;;11.90;66.75;-16874.28;5010886;28;45487;-94
2023/04/22 06:46:07;;;;;;;;;15.00;15.00;;;;;12.65;67.15;-16890.97;5012534;28;45724;-92
2023/04/22 06:48:33;;;;;;;;;17.67;15.67;;;;;13.03;68.37;-19557.59;5010033;28;46072;-94
2023/04/22 06:51:00;;;;;;;;;16.00;15.00;;;;;12.48;67.79;-19211.03;5017829;28;45694;-94
2023/04/22 06:53:26;;;;;;;;;14.33;14.33;;;;;13.23;67.50;-19230.41;5020129;28;45462;-94
2023/04/22 06:55:53;;;;;;;;;18.00;17.67;;;;;13.24;67.96;-19562.97;5018884;28;45402;-93
2023/04/22 06:58:19;;;;;;;;;16.00;15.33;;;;;13.25;67.99;-19563.25;5013350;28;47221;-94
2023/04/22 07:00:44;;;;;;;;;16.00;15.67;;;;;13.26;68.39;-19565.59;5005493;28;47110;-93
2023/04/22 07:03:10;;;;;;;;;17.67;16.00;;;;;13.28;68.02;-19564.19;5013299;28;45427;-94
2023/04/22 07:05:35;;;;;;;;;13.00;12.33;;;;;13.13;67.72;-19561.97;5009872;28;45493;-95
2023/04/22 07:08:01;;;;;;;;;17.33;15.00;;;;;13.21;68.00;-19562.31;5004310;28;46113;-93
2023/04/22 07:10:26;;;;;;;;;15.33;11.67;;;;;13.30;67.92;-19564.59;5002613;28;46912;-94
2023/04/22 07:12:52;;;;;;;;;16.00;12.00;;;;;13.32;67.91;-19565.00;5004628;28;45602;-94
2023/04/22 07:15:17;;;;;;;;;16.00;16.00;;;;;13.13;67.99;-19560.16;5004504;28;45611;-93
2023/04/22 07:17:42;;;;;;;;;19.67;14.67;;;;;13.24;67.99;-19562.97;5007608;28;45384;-92
2023/04/22 07:20:09;;;;;;;;;17.00;15.67;;;;;13.27;67.87;-19563.91;5015082;28;45466;-93
2023/04/22 07:22:34;;;;;;;;;16.67;15.33;;;;;12.94;68.12;-19555.16;5013745;28;45518;-93
2023/04/22 07:25:00;;;;;;;;;15.67;13.33;;;;;13.33;68.58;-19567.34;5016844;28;45663;-94
2023/04/22 07:27:25;;;;;;;;;19.00;14.33;;;;;13.21;68.31;-19564.25;5012586;28;46194;-95
2023/04/22 07:29:50;;;;;;;;;10.00;9.33;;;;;13.23;68.41;-19564.78;5007399;28;45827;-95
2023/04/22 07:32:16;;;;;;;;;14.00;11.67;;;;;13.15;69.57;-19562.63;5017199;28;45465;-92
2023/04/22 07:34:41;;;;;;;;;12.67;12.00;;;;;13.41;69.37;-19569.34;5017369;28;45538;-95
2023/04/22 07:37:08;;;;;;;;;12.33;12.33;;;;;13.32;72.19;-19567.06;5017441;28;47037;-95
2023/04/22 07:39:33;;;;;;;;;13.33;11.33;;;;;12.97;70.78;-19557.94;5017282;28;45509;-94
2023/04/22 07:41:59;;;;;;;;;14.00;12.33;;;;;13.44;71.16;-19570.16;5014950;28;45351;-94
2023/04/22 07:44:24;;;;;;;;;11.00;10.00;;;;;13.45;70.69;-19570.44;5018650;28;45344;-95
2023/04/22 07:46:50;;;;;;;;;12.33;11.67;;;;;13.30;70.48;-19566.66;5007454;28;46314;-95
2023/04/22 07:49:16;;;;;;;;;14.00;13.00;;;;;13.49;71.95;-19571.66;5010191;28;45355;-95
2023/04/22 07:51:43;;;;;;;;;11.67;11.67;;;;;13.43;71.74;-19569.91;5016824;28;45534;-96
2023/04/22 07:54:08;;;;;;;;;11.00;9.67;;;;;13.50;70.64;-19571.91;5019620;28;45461;-95
2023/04/22 07:56:33;;;;;;;;;11.33;10.33;;;;;13.34;70.44;-19567.47;5012702;28;52868;-93
2023/04/22 07:58:59;;;;;;;;;15.00;13.33;;;;;13.27;71.54;-19565.88;4999411;28;45346;-94
2023/04/22 08:01:24;;;;;;;;;13.33;11.67;;;;;12.95;71.47;-19557.38;5014336;28;46093;-92
2023/04/22 08:03:50;;;;;;;;;11.00;10.67;;;;;13.55;71.02;-19573.13;5014548;28;45530;-95
2023/04/22 08:06:15;;;;;;;;;13.33;11.33;;;;;13.57;71.11;-19573.66;5016722;28;46965;-91
2023/04/22 08:08:40;;;;;;;;;9.00;8.67;;;;;13.49;70.77;-19571.50;5016197;28;45490;-91
2023/04/22 08:11:06;;;;;;;;;17.00;15.33;;;;;13.61;72.92;-19574.75;5016622;28;45389;-90
2023/04/22 08:13:31;;;;;;;;;12.33;11.67;;;;;13.61;72.22;-19574.75;5016176;28;45499;-94
2023/04/22 08:15:57;;;;;;;;;11.00;10.67;;;;;13.61;72.01;-19574.75;4996771;28;48064;-86
2023/04/22 08:18:22;;;;;;;;;10.33;8.33;;;;;13.40;73.26;-19569.22;5004215;28;45831;-89
2023/04/22 08:20:49;;;;;;;;;18.33;13.00;;;;;13.64;73.46;-19575.53;5011662;28;45430;-87
2023/04/22 08:23:14;;;;;;;;;11.00;8.00;;;;;13.58;72.46;-19573.78;5013690;28;45669;-86
2023/04/22 08:25:39;;;;;;;;;11.00;9.67;;;;;13.67;72.98;-19576.22;5014048;28;49758;-92
2023/04/22 08:28:04;;;;;;;;;8.67;8.67;;;;;13.44;73.58;-19570.31;5013988;28;45482;-88
2023/04/22 08:30:30;;;;;;;;;10.00;10.00;;;;;13.63;73.45;-19575.28;5010546;28;58364;-83
2023/04/22 08:32:58;;;;;;;;;13.33;11.33;;;;;13.70;72.34;-19577.16;5009617;28;45640;-83
2023/04/22 08:35:24;;;;;;;;;11.67;11.67;;;;;13.68;72.13;-19576.50;5014612;28;45614;-84
2023/04/22 08:37:49;;;;;;;;;10.33;10.33;;;;;13.73;72.40;-19577.84;5010545;28;45480;-82
2023/04/22 08:40:15;;;;;;;;;8.67;8.67;;;;;13.60;72.14;-19574.47;5010978;28;45827;-83
2023/04/22 08:42:42;;;;;;;;;13.67;12.00;;;;;13.78;72.85;-19579.03;5006893;28;45464;-83
2023/04/22 08:45:09;;;;;;;;;8.67;8.67;;;;;13.80;72.52;-19579.56;5007005;28;46474;-85
2023/04/22 08:47:37;;;;;;;;;15.33;11.67;;;;;13.67;72.23;-19576.34;4999127;28;45534;-84
2023/04/22 08:50:05;;;;;;;;;22.00;20.33;;;;;13.56;72.81;-19573.41;5013847;28;45638;-83
2023/04/22 08:52:30;;;;;;;;;18.67;17.33;;;;;13.58;72.83;-19573.94;5008520;28;45704;-83
2023/04/22 08:54:56;;;;;;;;;17.33;17.33;;;;;13.68;73.08;-19576.50;5009752;28;46420;-84
2023/04/22 08:57:22;;;;;;;;;22.33;20.00;;;;;13.85;74.01;-19580.91;5007201;28;45467;-83
2023/04/22 08:59:48;;;;;;;;;21.67;20.00;;;;;13.84;73.44;-19580.78;5017774;28;45466;-83
2023/04/22 09:02:22;;;;;;;;;20.67;17.33;;;;;13.82;73.44;-19580.25;5016438;28;45474;-82
2023/04/22 09:04:50;;;;;;;;;19.67;19.67;;;;;13.83;73.63;-19580.38;5015458;28;45417;-81
2023/04/22 09:07:22;;;;;;;;;22.33;20.33;;;;;13.56;74.06;-19573.41;5010892;28;45548;-87
2023/04/22 09:09:49;;;;;;;;;25.33;23.00;;;;;13.57;74.66;-19573.53;5003333;28;45745;-90
2023/04/22 09:12:16;;;;;;;;;30.00;23.67;;;;;13.80;74.21;-19579.56;5014615;28;45529;-88
2023/04/22 09:14:42;;;;;;;;;28.33;23.33;;;;;13.78;74.07;-19579.16;5009553;28;47017;-90
2023/04/22 09:17:07;;;;;;;;;12.33;9.33;;;;;13.77;74.04;-19578.78;5007795;28;45538;-85
2023/04/22 09:19:33;;;;;;;;;28.33;24.00;;;;;13.65;74.01;-19575.81;5016442;28;45495;-84
2023/04/22 09:21:59;;;;;;;;;24.00;20.33;;;;;13.50;74.74;-19571.91;5010605;28;45458;-86
2023/04/22 09:24:24;;;;;;;;;23.67;23.67;;;;;13.76;74.49;-19578.50;5012662;28;47036;-90
2023/04/22 09:26:49;;;;;;;;;24.33;20.33;;;;;13.66;74.38;-19576.09;5016434;28;45525;-90
2023/04/22 09:29:15;;;;;;;;;22.33;21.33;;;;;13.64;74.33;-19575.53;4993816;28;45971;-87
2023/04/22 09:31:41;;;;;;;;;20.67;17.33;;;;;13.59;74.37;-19574.06;5016773;28;45920;-86
2023/04/22 09:34:07;;;;;;;;;23.00;19.00;;;;;13.83;74.48;-19580.38;5016506;28;46049;-90
2023/04/22 09:36:33;;;;;;;;;17.00;17.00;;;;;13.76;75.23;-19578.50;5011287;28;45482;-92
2023/04/22 09:39:03;;;;;;;;;27.67;20.00;;;;;13.59;74.22;-19574.19;5011029;28;45510;-92
2023/04/22 09:41:31;;;;;;;;;20.67;18.00;;;;;13.25;74.40;-19565.31;5010506;28;45703;-89
2023/04/22 09:43:58;;;;;;;;;20.33;18.33;;;;;13.88;74.26;-19581.72;5007509;28;45617;-89
2023/04/22 09:46:25;;;;;;;;;27.67;22.00;;;;;13.28;74.57;-19566.00;4982841;28;45677;-92
2023/04/22 09:48:52;;;;;;;;;26.00;20.33;;;;;13.35;74.63;-19567.88;5011942;28;45738;-88
2023/04/22 09:51:18;;;;;;;;;22.67;21.00;;;;;13.25;75.41;-19565.31;5013455;28;45826;-87
2023/04/22 09:53:44;;;;;;;;;27.67;22.00;;;;;13.22;74.42;-19564.38;5011114;28;45473;-88
2023/04/22 09:56:10;;;;;;;;;22.33;21.33;;;;;12.63;75.33;-19548.91;5015703;28;45523;-87
2023/04/22 09:58:39;;;;;;;;;22.33;19.67;;;;;13.91;75.43;-19582.66;5010742;28;45674;-88
2023/04/22 10:01:05;;;;;;;;;24.33;21.67;;;;;13.71;74.86;-19577.28;5006680;28;45449;-86
2023/04/22 10:03:31;;;;;;;;;22.00;19.33;;;;;13.97;75.12;-19584.16;5009072;28;47181;-88
2023/04/22 10:05:57;;;;;;;;;20.67;15.33;;;;;13.79;75.47;-19579.31;5009276;28;45524;-87
2023/04/22 10:08:27;;;;;;;;;16.67;15.33;;;;;13.08;75.15;-19560.88;5010813;28;45379;-88
2023/04/22 10:10:52;;;;;;;;;21.00;17.00;;;;;14.08;74.96;-19586.97;5007346;28;45479;-89
2023/04/22 10:13:18;;;;;;;;;17.33;14.67;;;;;14.09;75.40;-19587.22;5013070;28;46917;-84
2023/04/22 10:15:49;;;;;;;;;16.33;15.33;;;;;14.13;75.37;-19588.31;5003666;28;45553;-86
2023/04/22 10:18:20;;;;;;;;;24.67;21.67;;;;;13.02;75.68;-19559.28;4998610;28;45923;-89
2023/04/22 10:20:46;;;;;;;;;11.33;11.33;;;;;14.03;75.59;-19585.75;4997651;28;45570;-88
2023/04/22 10:23:16;;;;;;;;;16.33;16.33;;;;;13.59;75.49;-19574.19;4997966;28;45756;-86
2023/04/22 10:25:51;;;;;;;;;15.67;13.67;;;;;13.75;75.54;-19578.22;4999970;28;45585;-87
2023/04/22 10:28:27;;;;;;;;;18.00;16.67;;;;;14.24;75.61;-19591.25;5003189;28;45906;-84
2023/04/22 10:30:52;;;;;;;;;17.33;17.33;;;;;14.05;75.68;-19586.16;5002900;28;45923;-86
2023/04/22 10:33:27;;;;;;;;;11.00;10.67;;;;;14.05;75.67;-19586.16;4992763;28;46985;-86
2023/04/22 10:36:05;;;;;;;;;15.33;14.00;;;;;14.32;75.71;-19593.28;5008961;28;45490;-86
2023/04/22 10:38:48;;;;;;;;;17.67;16.00;;;;;14.36;75.54;-19594.50;5006338;28;45526;-86
2023/04/22 10:41:14;;;;;;;;;16.00;13.00;;;;;13.84;75.72;-19580.78;5002129;28;45402;-86
2023/04/22 10:43:44;;;;;;;;;17.67;14.33;;;;;14.41;75.57;-19595.56;5001273;28;46264;-86
2023/04/22 10:46:31;;;;;;;;;16.00;12.67;;;;;14.41;75.73;-19595.69;5003752;28;45468;-85
2023/04/22 10:49:01;;;;;;;;;12.67;12.67;;;;;14.43;75.47;-19596.09;4991294;28;45402;-86
2023/04/22 10:51:39;;;;;;;;;14.67;13.33;;;;;14.22;75.72;-19590.59;5004486;28;45360;-87
2023/04/22 10:54:06;;;;;;;;;15.67;14.00;;;;;14.44;75.25;-19596.38;5012332;28;45895;-88
2023/04/22 10:56:34;;;;;;;;;11.67;8.67;;;;;14.45;75.29;-19596.78;4999843;28;45411;-84
2023/04/22 10:59:14;;;;;;;;;10.67;9.67;;;;;13.30;74.83;-19566.53;4997435;28;45520;-85
2023/04/22 11:01:40;;;;;;;;;10.67;10.67;;;;;14.44;76.09;-19596.38;4989680;28;45511;-84
2023/04/22 11:04:21;;;;;;;;;12.00;11.00;;;;;14.59;75.95;-19600.41;4992274;28;47151;-84
2023/04/22 11:07:16;;;;;;;;;9.67;9.67;;;;;14.54;75.84;-19599.06;4988572;28;45375;-84
2023/04/22 11:10:00;;;;;;;;;15.00;12.00;;;;;14.66;75.51;-19602.16;4948726;28;46498;-86
2023/04/22 11:12:34;;;;;;;;;14.67;11.33;;;;;14.68;75.75;-19602.69;4946656;28;45515;-84
2023/04/22 11:15:10;;;;;;;;;7.33;7.33;;;;;14.70;76.24;-19603.22;4945386;28;46965;-84
2023/04/22 11:17:50;;;;;;;;;13.00;9.00;;;;;14.73;75.72;-19604.03;4941282;28;45535;-84
2023/04/22 11:20:16;;;;;;;;;11.00;11.00;;;;;14.02;76.02;-19585.50;4944417;28;46562;-84
2023/04/22 11:22:43;;;;;;;;;14.67;9.33;;;;;14.22;76.34;-19590.72;4947643;28;46067;-85
2023/04/22 11:25:09;;;;;;;;;13.67;9.67;;;;;14.63;76.59;-19601.47;4950078;28;46186;-85
2023/04/22 11:27:36;;;;;;;;;14.00;8.67;;;;;14.63;76.03;-19601.34;4952399;28;46206;-86
2023/04/22 11:30:13;;;;;;;;;10.33;8.67;;;;;14.18;75.93;-19589.53;4949070;28;45613;-88
2023/04/22 11:32:41;;;;;;;;;13.33;11.67;;;;;14.17;76.26;-19589.38;4948008;28;45455;-89
2023/04/22 11:35:09;;;;;;;;;13.67;11.33;;;;;14.03;75.77;-19585.63;4951720;28;45898;-86
2023/04/22 11:37:45;;;;;;;;;11.67;8.67;;;;;14.15;75.71;-19588.97;4942873;28;45690;-88
2023/04/22 11:40:13;;;;;;;;;13.00;12.00;;;;;15.03;75.71;-19611.81;4937368;28;45393;-89
2023/04/22 11:42:39;;;;;;;;;10.33;8.00;;;;;15.06;75.63;-19612.75;4948345;28;45469;-84
2023/04/22 11:45:06;;;;;;;;;10.67;10.67;;;;;15.09;75.51;-19613.44;4935270;28;46103;-88
2023/04/22 11:47:35;;;;;;;;;8.67;8.33;;;;;14.56;75.49;-19599.72;4973466;28;45553;-88
2023/04/22 11:50:05;;;;;;;;;13.33;9.67;;;;;13.89;75.17;-19582.00;4974995;28;45731;-85
2023/04/22 11:53:00;;;;;;;;;14.00;12.67;;;;;15.13;75.39;-19614.50;4975388;28;45485;-87
2023/04/22 11:55:34;;;;;;;;;13.67;11.33;;;;;14.92;75.33;-19609.13;4989687;28;47417;-87
2023/04/22 11:58:09;;;;;;;;;5.00;5.00;;;;;15.15;75.01;-19615.16;4993475;28;45431;-87
2023/04/22 12:00:43;;;;;;;;;13.00;10.33;;;;;15.11;74.99;-19613.97;4980901;28;45455;-89
2023/04/22 12:03:19;;;;;;;;;10.67;10.67;;;;;15.17;75.32;-19615.72;5001719;28;46008;-87
2023/04/22 12:05:52;;;;;;;;;9.67;9.33;;;;;15.20;75.62;-19616.38;5002972;28;45449;-87
2023/04/22 12:08:19;;;;;;;;;12.33;10.33;;;;;15.20;75.54;-19616.38;5014448;28;45471;-89
2023/04/22 12:10:47;;;;;;;;;8.33;8.33;;;;;15.19;75.13;-19616.09;5006886;28;45451;-90
2023/04/22 12:13:40;;;;;;;;;13.00;12.00;;;;;15.22;75.13;-19616.91;5007863;28;45584;-89
2023/04/22 12:16:11;;;;;;;;;13.00;10.67;;;;;15.20;75.17;-19616.50;4992460;28;46964;-89
2023/04/22 12:18:47;;;;;;;;;11.00;10.33;;;;;15.21;74.80;-19616.66;5009275;28;45492;-90
2023/04/22 12:21:14;;;;;;;;;10.33;10.33;;;;;15.19;74.49;-19616.25;4998939;28;45427;-90
2023/04/22 12:23:40;;;;;;;;;8.67;8.67;;;;;15.12;74.80;-19614.22;5002007;28;45587;-91
2023/04/22 12:26:05;;;;;;;;;9.33;8.67;;;;;14.83;74.36;-19606.72;5003248;28;46144;-88
2023/04/22 12:28:31;;;;;;;;;13.67;12.00;;;;;15.18;74.67;-19615.97;4991007;28;46596;-89
2023/04/22 12:30:56;;;;;;;;;13.67;11.00;;;;;15.13;74.60;-19614.63;5009966;28;45553;-90
2023/04/22 12:33:22;;;;;;;;;9.00;9.00;;;;;15.08;75.08;-19613.16;5001517;28;45665;-89
2023/04/22 12:35:51;;;;;;;;;10.00;8.00;;;;;14.41;74.72;-19595.69;4994474;28;47442;-91
2023/04/22 12:38:17;;;;;;;;;8.67;8.67;;;;;14.43;74.62;-19596.09;5009985;28;45573;-85
2023/04/22 12:40:42;;;;;;;;;10.33;9.67;;;;;14.77;74.41;-19605.25;5011358;28;45904;-85
2023/04/22 12:43:07;;;;;;;;;10.67;10.33;;;;;15.19;74.52;-19616.09;5011740;28;45634;-85
2023/04/22 12:45:32;;;;;;;;;9.33;9.00;;;;;15.19;74.61;-19616.25;5008997;28;53639;-86
2023/04/22 12:47:58;;;;;;;;;13.67;11.67;;;;;15.13;74.89;-19614.63;5007960;28;46213;-87
2023/04/22 12:50:24;;;;;;;;;15.33;13.33;;;;;15.23;74.59;-19617.19;5012518;28;45746;-87
2023/04/22 12:52:50;;;;;;;;;9.33;9.33;;;;;15.10;74.26;-19613.69;5014076;28;45516;-87
2023/04/22 12:55:16;;;;;;;;;9.67;9.67;;;;;15.04;74.08;-19612.22;5014028;28;45984;-89
2023/04/22 12:57:42;;;;;;;;;12.00;10.00;;;;;14.52;74.76;-19598.53;5018110;28;45440;-88
2023/04/22 13:00:13;;;;;;;;;14.00;11.00;;;;;15.34;74.21;-19620.13;5015988;28;46985;-86
2023/04/22 13:02:40;;;;;;;;;12.00;8.67;;;;;15.16;74.40;-19615.44;5005989;28;46561;-91
2023/04/22 13:05:05;;;;;;;;;14.33;13.00;;;;;15.13;74.54;-19614.63;5013427;28;46455;-89
2023/04/22 13:07:31;;;;;;;;;9.33;8.67;;;;;15.69;74.33;-19629.25;5010760;28;45545;-91
2023/04/22 13:09:56;;;;;;;;;14.00;11.33;;;;;15.72;73.78;-19630.06;5005536;28;45450;-94
2023/04/22 13:12:21;;;;;;;;;11.00;11.00;;;;;16.02;74.20;-19637.97;5013019;28;45494;-94
2023/04/22 13:14:46;;;;;;;;;12.33;11.33;;;;;16.19;73.98;-19642.41;5018536;28;46351;-96
2023/04/22 13:17:12;;;;;;;;;11.33;10.33;;;;;16.33;73.24;-19646.00;5001146;28;47661;-89
2023/04/22 13:19:37;;;;;;;;;10.00;9.33;;;;;16.43;73.25;-19648.56;5006657;28;45366;-91
2023/04/22 13:22:02;;;;;;;;;6.67;5.00;;;;;16.34;73.28;-19646.16;5006059;28;45885;-94
2023/04/22 13:24:28;;;;;;;;;12.33;11.00;;;;;16.38;73.32;-19647.22;5011721;28;46270;-95
2023/04/22 13:26:54;;;;;;;;;11.67;10.67;;;;;16.68;72.77;-19655.13;5001252;28;45406;-93
2023/04/22 13:29:19;;;;;;;;;15.67;11.67;;;;;16.72;72.72;-19656.19;5010738;28;45820;-91
2023/04/22 13:31:45;;;;;;;;;9.67;9.67;;;;;16.59;72.51;-19652.84;4995145;28;45557;-93
2023/04/22 13:34:10;;;;;;;;;9.33;7.67;;;;;16.67;72.42;-19654.84;5014181;28;46125;-91
2023/04/22 13:36:36;;;;;;;;;9.67;8.67;;;;;16.88;72.05;-19660.34;5000865;28;45527;-93
2023/04/22 13:39:01;;;;;;;;;8.67;7.67;;;;;16.92;72.32;-19661.41;4997575;28;45438;-90
2023/04/22 13:41:27;;;;;;;;;11.67;10.00;;;;;16.72;71.79;-19656.19;5005524;28;45507;-93
2023/04/22 13:43:54;;;;;;;;;10.67;8.33;;;;;16.97;72.13;-19662.75;5016488;28;45622;-94
2023/04/22 13:46:29;;;;;;;;;9.33;8.67;;;;;16.85;72.03;-19659.69;5014369;28;45635;-96
2023/04/22 13:48:55;;;;;;;;;11.00;10.33;;;;;16.87;71.72;-19660.09;5015095;28;45612;-95
2023/04/22 13:51:21;;;;;;;;;10.67;9.33;;;;;17.02;71.49;-19664.09;5018176;28;45480;-95
2023/04/22 13:53:46;;;;;;;;;10.67;8.67;;;;;16.91;71.27;-19661.16;5009555;28;46736;-95
2023/04/22 13:56:12;;;;;;;;;9.00;9.00;;;;;16.57;71.38;-19652.16;5007556;28;45467;-93
2023/04/22 13:58:39;;;;;;;;;8.67;6.00;;;;;17.19;71.13;-19668.50;5013082;28;45455;-94
2023/04/22 14:01:07;;;;;;;;;9.33;7.33;;;;;16.87;71.29;-19660.09;5013140;28;45580;-94
2023/04/22 14:03:34;;;;;;;;;9.00;7.67;;;;;17.01;70.71;-19663.81;5000337;28;47012;-95
2023/04/22 14:06:00;;;;;;;;;9.00;6.00;;;;;17.25;71.44;-19669.97;5004900;28;45522;-92
2023/04/22 14:08:26;;;;;;;;;7.67;7.67;;;;;17.07;70.91;-19665.31;5015557;28;45961;-92
2023/04/22 14:10:53;;;;;;;;;11.00;7.67;;;;;16.28;70.86;-19644.66;5001122;28;45697;-94
2023/04/22 14:13:22;;;;;;;;;10.67;9.67;;;;;17.02;70.51;-19664.09;5010069;28;45697;-92
2023/04/22 14:15:49;;;;;;;;;8.67;7.33;;;;;16.45;70.17;-19649.09;5010180;28;45428;-95
2023/04/22 14:18:14;;;;;;;;;9.67;8.33;;;;;16.65;69.87;-19654.31;5002084;28;46003;-94
2023/04/22 14:20:41;;;;;;;;;6.67;6.67;;;;;16.53;69.89;-19651.25;5004830;28;45611;-92
2023/04/22 14:23:07;;;;;;;;;8.33;8.33;;;;;17.31;69.94;-19671.59;5016140;28;45681;-92
2023/04/22 14:25:32;;;;;;;;;5.00;5.00;;;;;17.33;70.02;-19672.13;5017127;28;45526;-93
2023/04/22 14:27:58;;;;;;;;;5.00;5.00;;;;;17.24;69.84;-19669.72;5009431;28;45430;-92
2023/04/22 14:30:23;;;;;;;;;4.33;4.00;;;;;17.35;69.08;-19672.53;5012671;28;45443;-93
2023/04/22 14:32:49;;;;;;;;;6.00;6.00;;;;;17.35;69.64;-19672.53;5009673;28;46120;-93
2023/04/22 14:35:14;;;;;;;;;8.00;5.00;;;;;17.35;69.66;-19672.66;5004425;28;45501;-90
2023/04/22 14:37:40;;;;;;;;;6.00;5.00;;;;;17.00;68.98;-19663.44;5013122;28;45518;-94
2023/04/22 14:40:07;;;;;;;;;6.67;5.00;;;;;16.58;68.57;-19652.56;5013050;28;45517;-96
2023/04/22 14:42:38;;;;;;;;;5.67;4.00;;;;;16.20;69.04;-19642.53;5003955;28;45677;-96
2023/04/22 14:45:09;;;;;;;;;4.33;4.33;;;;;15.98;68.94;-19636.91;5000218;28;45447;-96
2023/04/22 14:47:36;;;;;;;;;7.33;6.33;;;;;16.87;68.98;-19660.22;5003970;28;45496;-96
2023/04/22 14:50:02;;;;;;;;;4.33;3.00;;;;;17.44;68.60;-19675.06;5009755;28;45395;-93
2023/04/22 14:52:31;;;;;;;;;4.00;4.00;;;;;16.46;68.20;-19649.50;5014980;28;47333;-91
2023/04/22 14:54:56;;;;;;;;;5.67;4.00;;;;;17.17;68.11;-19667.97;4993785;28;45309;-92
2023/04/22 14:57:23;;;;;;;;;4.33;3.00;;;;;17.44;67.74;-19675.06;5011645;28;45946;-95
2023/04/22 14:59:48;;;;;;;;;7.33;7.33;;;;;17.44;67.52;-19674.94;5010219;28;45975;-90
2023/04/22 15:02:15;;;;;;;;;5.00;5.00;;;;;17.60;67.54;-19679.09;5000661;28;46607;-90
2023/04/22 15:04:41;;;;;;;;;5.00;4.00;;;;;17.63;67.60;-19679.88;4996739;28;45404;-88
2023/04/22 15:07:07;;;;;;;;;5.67;4.00;;;;;17.66;67.27;-19680.69;5008514;28;45471;-91
2023/04/22 15:09:33;;;;;;;;;3.00;2.67;;;;;17.49;67.01;-19676.28;5010502;28;45510;-89
2023/04/22 15:11:58;;;;;;;;;4.33;3.33;;;;;17.50;66.70;-19676.53;5014180;28;48671;-91
2023/04/22 15:14:24;;;;;;;;;5.00;5.00;;;;;17.53;66.36;-19677.34;5014271;28;45751;-91
2023/04/22 15:16:49;;;;;;;;;3.00;3.00;;;;;17.47;66.41;-19675.88;5005966;28;45716;-92
2023/04/22 15:19:14;;;;;;;;;3.67;3.67;;;;;17.69;65.90;-19681.50;5009928;28;45377;-92